createdAt,value
2019-02-05T00:00:55.525Z,10.600000
2019-02-05T00:03:25.829Z,10.600000
2019-02-05T00:05:56.229Z,9.200000
2019-02-05T00:08:26.540Z,9.200000
2019-02-05T00:10:57.250Z,12.800000
2019-02-05T00:13:27.570Z,12.800000
2019-02-05T00:15:57.880Z,9.600000
2019-02-05T00:18:28.286Z,9.600000
2019-02-05T00:20:58.824Z,11.400000
2019-02-05T00:23:29.241Z,11.400000
2019-02-05T00:26:06.308Z,10.700000
2019-02-05T00:28:36.946Z,10.700000
2019-02-05T00:31:07.350Z,12.100000
2019-02-05T00:33:37.546Z,12.100000
2019-02-05T00:36:07.952Z,12.700000
2019-02-05T00:38:38.254Z,12.700000
2019-02-05T00:41:08.570Z,13.700000
2019-02-05T00:43:39.083Z,13.700000
2019-02-05T00:46:09.385Z,12.500000
2019-02-05T00:48:39.893Z,12.500000
2019-02-05T00:51:10.504Z,11.700000
2019-02-05T00:53:40.840Z,11.700000
2019-02-05T00:56:17.616Z,13.200000
2019-02-05T00:58:48.226Z,13.200000
2019-02-05T01:01:18.733Z,13.500000
2019-02-05T01:03:49.038Z,13.500000
2019-02-05T01:06:19.454Z,13.900000
2019-02-05T01:08:49.859Z,13.900000
2019-02-05T01:11:20.344Z,13.000000
2019-02-05T01:13:50.735Z,13.000000
2019-02-05T01:16:21.335Z,14.500000
2019-02-05T01:18:51.930Z,14.500000
2019-02-05T01:21:22.319Z,14.200000
2019-02-05T01:23:52.711Z,14.200000
2019-02-05T01:26:29.182Z,13.800000
2019-02-05T01:29:01.469Z,13.800000
2019-02-05T01:31:31.885Z,15.100000
2019-02-05T01:34:02.246Z,15.100000
2019-02-05T01:36:32.548Z,14.200000
2019-02-05T01:39:03.180Z,14.200000
2019-02-05T01:41:33.818Z,14.700000
2019-02-05T01:44:04.118Z,14.700000
2019-02-05T01:46:34.502Z,14.200000
2019-02-05T01:49:04.796Z,14.200000
2019-02-05T01:51:35.191Z,14.000000
2019-02-05T01:54:05.606Z,14.000000
2019-02-05T01:56:40.745Z,11.500000
2019-02-05T01:59:11.280Z,11.500000
2019-02-05T02:01:41.688Z,16.100000
2019-02-05T02:04:11.992Z,16.100000
2019-02-05T02:06:42.287Z,15.400000
2019-02-05T02:09:12.799Z,15.400000
2019-02-05T02:11:43.170Z,14.600000
2019-02-05T02:14:13.460Z,14.600000
2019-02-05T02:16:43.764Z,14.800000
2019-02-05T02:19:14.073Z,14.800000
2019-02-05T02:21:44.406Z,15.700000
2019-02-05T02:24:14.792Z,15.700000
2019-02-05T02:26:51.858Z,14.100000
2019-02-05T02:29:22.856Z,14.100000
2019-02-05T02:31:53.076Z,14.800000
2019-02-05T02:34:23.520Z,14.800000
2019-02-05T02:36:53.898Z,14.300000
2019-02-05T02:39:24.303Z,14.300000
2019-02-05T02:41:54.512Z,12.000000
2019-02-05T02:44:24.832Z,12.000000
2019-02-05T02:46:55.135Z,14.200000
2019-02-05T02:49:25.762Z,14.200000
2019-02-05T02:51:56.087Z,14.400000
2019-02-05T02:54:26.490Z,14.400000
2019-02-05T02:57:04.560Z,13.900000
2019-02-05T02:59:35.525Z,14.500000
2019-02-05T03:02:05.842Z,14.500000
2019-02-05T03:04:36.283Z,13.700000
2019-02-05T03:07:11.746Z,13.700000
2019-02-05T03:09:42.012Z,14.000000
2019-02-05T03:12:17.478Z,14.000000
2019-02-05T03:14:53.053Z,14.400000
2019-02-05T03:17:23.406Z,14.400000
2019-02-05T03:19:53.717Z,14.200000
2019-02-05T03:22:24.058Z,14.200000
2019-02-05T03:24:54.570Z,15.500000
2019-02-05T03:27:24.906Z,15.500000
2019-02-05T03:29:55.531Z,15.600000
2019-02-05T03:32:26.045Z,15.600000
2019-02-05T03:35:01.508Z,12.500000
2019-02-05T03:37:31.778Z,12.500000
2019-02-05T03:40:02.206Z,14.600000
2019-02-05T03:42:32.626Z,14.600000
2019-02-05T03:45:02.942Z,15.100000
2019-02-05T03:47:33.268Z,15.100000
2019-02-05T03:50:03.678Z,14.000000
2019-02-05T03:52:33.989Z,14.000000
2019-02-05T03:55:04.328Z,13.900000
2019-02-05T03:57:34.841Z,13.900000
2019-02-05T04:00:05.220Z,14.000000
2019-02-05T04:02:35.540Z,14.000000
2019-02-05T04:05:05.979Z,13.200000
2019-02-05T04:07:36.289Z,13.200000
2019-02-05T04:10:06.706Z,12.800000
2019-02-05T04:12:37.357Z,12.800000
2019-02-05T04:15:07.758Z,12.000000
2019-02-05T04:17:38.080Z,12.000000
2019-02-05T04:20:08.523Z,13.500000
2019-02-05T04:22:38.965Z,13.500000
2019-02-05T04:25:09.277Z,13.700000
2019-02-05T04:27:46.624Z,13.700000
2019-02-05T04:30:17.570Z,12.100000
2019-02-05T04:32:47.994Z,12.100000
2019-02-05T04:35:18.411Z,15.500000
2019-02-05T04:37:48.823Z,15.500000
2019-02-05T04:40:19.245Z,15.800000
2019-02-05T04:42:49.567Z,15.800000
2019-02-05T04:45:19.988Z,15.100000
2019-02-05T04:47:50.414Z,15.100000
2019-02-05T04:50:20.874Z,15.800000
2019-02-05T04:52:51.530Z,15.800000
2019-02-05T04:55:21.857Z,13.000000
2019-02-05T04:57:58.061Z,13.000000
2019-02-05T05:00:31.243Z,15.100000
2019-02-05T05:03:01.505Z,15.100000
2019-02-05T05:05:32.201Z,16.100000
2019-02-05T05:08:02.536Z,16.100000
2019-02-05T05:10:33.067Z,14.900000
2019-02-05T05:13:03.474Z,14.900000
2019-02-05T05:15:33.799Z,15.000000
2019-02-05T05:18:04.189Z,15.000000
2019-02-05T05:20:39.660Z,14.600000
2019-02-05T05:23:12.007Z,14.600000
2019-02-05T05:25:42.284Z,15.800000
2019-02-05T05:28:12.721Z,15.800000
2019-02-05T05:30:43.025Z,16.600000
2019-02-05T05:33:13.730Z,16.600000
2019-02-05T05:35:44.497Z,14.500000
2019-02-05T05:38:15.051Z,14.500000
2019-02-05T05:40:45.492Z,13.200000
2019-02-05T05:43:15.786Z,13.200000
2019-02-05T05:45:46.189Z,15.900000
2019-02-05T05:48:16.921Z,15.900000
2019-02-05T05:50:47.365Z,16.900000
2019-02-05T05:53:17.798Z,16.900000
2019-02-05T05:55:48.181Z,15.500000
2019-02-05T05:58:23.172Z,15.500000
2019-02-05T06:00:53.784Z,15.700000
2019-02-05T06:03:24.131Z,15.700000
2019-02-05T06:05:54.434Z,13.600000
2019-02-05T06:08:24.845Z,13.600000
2019-02-05T06:10:55.169Z,14.900000
2019-02-05T06:13:25.656Z,14.900000
2019-02-05T06:15:56.315Z,14.100000
2019-02-05T06:18:26.656Z,14.100000
2019-02-05T06:20:57.324Z,15.100000
2019-02-05T06:23:27.822Z,14.700000
2019-02-05T06:25:58.174Z,14.700000
2019-02-05T06:28:34.613Z,14.300000
2019-02-05T06:31:05.295Z,14.300000
2019-02-05T06:33:35.533Z,15.700000
2019-02-05T06:36:05.945Z,15.700000
2019-02-05T06:38:36.262Z,12.900000
2019-02-05T06:41:06.619Z,12.900000
2019-02-05T06:43:37.013Z,13.400000
2019-02-05T06:46:07.344Z,13.400000
2019-02-05T06:48:37.767Z,11.600000
2019-02-05T06:51:08.091Z,11.600000
2019-02-05T06:53:38.527Z,12.900000
2019-02-05T06:56:08.949Z,12.900000
2019-02-05T06:58:46.420Z,14.700000
2019-02-05T07:01:17.058Z,14.700000
2019-02-05T07:03:47.384Z,13.000000
2019-02-05T07:06:18.037Z,13.000000
2019-02-05T07:08:48.400Z,12.700000
2019-02-05T07:11:18.822Z,12.700000
2019-02-05T07:13:49.442Z,10.300000
2019-02-05T07:16:20.072Z,10.300000
2019-02-05T07:18:50.703Z,13.100000
2019-02-05T07:21:21.310Z,13.100000
2019-02-05T07:23:51.764Z,12.800000
2019-02-05T07:26:22.911Z,12.800000
2019-02-05T07:29:00.022Z,12.300000
2019-02-05T07:31:32.351Z,12.300000
2019-02-05T07:34:03.300Z,13.500000
2019-02-05T07:36:34.024Z,13.500000
2019-02-05T07:39:04.859Z,11.900000
2019-02-05T07:41:35.431Z,11.900000
2019-02-05T07:44:06.014Z,13.600000
2019-02-05T07:46:36.542Z,13.600000
2019-02-05T07:49:07.183Z,13.900000
2019-02-05T07:51:37.700Z,13.900000
2019-02-05T07:54:08.184Z,14.300000
2019-02-05T07:56:39.043Z,14.300000
2019-02-05T07:59:10.595Z,14.000000
2019-02-05T08:01:41.146Z,14.000000
2019-02-05T08:04:11.672Z,14.700000
2019-02-05T08:06:42.198Z,14.700000
2019-02-05T08:09:12.731Z,12.600000
2019-02-05T08:11:43.459Z,12.600000
2019-02-05T08:14:13.885Z,14.200000
2019-02-05T08:16:44.417Z,14.200000
2019-02-05T08:19:14.936Z,12.300000
2019-02-05T08:21:45.365Z,12.300000
2019-02-05T08:24:15.903Z,12.900000
2019-02-05T08:26:46.221Z,12.900000
2019-02-05T08:29:21.725Z,12.100000
2019-02-05T08:31:52.291Z,12.100000
2019-02-05T08:34:22.923Z,13.700000
2019-02-05T08:36:53.552Z,13.700000
2019-02-05T08:39:24.096Z,14.300000
2019-02-05T08:41:55.124Z,14.300000
2019-02-05T08:44:25.572Z,13.400000
2019-02-05T08:46:56.195Z,13.400000
2019-02-05T08:49:27.002Z,13.800000
2019-02-05T08:51:57.413Z,13.800000
2019-02-05T08:54:28.183Z,15.300000
2019-02-05T08:56:58.900Z,15.300000
2019-02-05T08:59:29.529Z,14.100000
2019-02-05T09:02:00.191Z,14.100000
2019-02-05T09:04:30.790Z,15.100000
2019-02-05T09:07:01.420Z,15.100000
2019-02-05T09:09:31.948Z,14.800000
2019-02-05T09:12:02.770Z,14.800000
2019-02-05T09:14:33.208Z,17.400000
2019-02-05T09:17:03.638Z,17.400000
2019-02-05T09:19:36.110Z,17.900000
2019-02-05T09:22:06.532Z,17.900000
2019-02-05T09:24:37.162Z,14.000000
2019-02-05T09:27:08.323Z,14.000000
2019-02-05T09:29:38.940Z,16.000000
2019-02-05T09:32:09.463Z,16.000000
2019-02-05T09:34:40.905Z,16.100000
2019-02-05T09:37:12.893Z,16.100000
2019-02-05T09:39:43.328Z,14.400000
2019-02-05T09:42:13.827Z,14.400000
2019-02-05T09:44:44.652Z,17.500000
2019-02-05T09:47:16.398Z,17.500000
2019-02-05T09:49:47.117Z,14.800000
2019-02-05T09:52:17.667Z,14.800000
2019-02-05T09:54:48.109Z,15.500000
2019-02-05T09:57:18.632Z,15.500000
2019-02-05T09:59:49.165Z,17.300000
2019-02-05T10:02:20.003Z,14.600000
2019-02-05T10:04:51.009Z,14.600000
2019-02-05T10:07:23.976Z,18.400000
2019-02-05T10:09:54.859Z,18.400000
2019-02-05T10:12:25.391Z,16.900000
2019-02-05T10:14:55.893Z,16.900000
2019-02-05T10:17:26.611Z,18.000000
2019-02-05T10:19:57.172Z,18.000000
2019-02-05T10:22:27.704Z,17.800000
2019-02-05T10:24:58.741Z,17.800000
2019-02-05T10:27:29.257Z,16.300000
2019-02-05T10:29:59.800Z,16.300000
2019-02-05T10:32:30.325Z,16.600000
2019-02-05T10:35:00.767Z,16.600000
2019-02-05T10:37:31.126Z,14.500000
2019-02-05T10:40:01.811Z,14.500000
2019-02-05T10:42:32.181Z,18.200000
2019-02-05T10:45:02.757Z,18.200000
2019-02-05T10:47:33.287Z,18.000000
2019-02-05T10:50:03.717Z,18.000000
2019-02-05T10:52:34.151Z,18.400000
2019-02-05T10:55:05.177Z,18.400000
2019-02-05T10:57:35.704Z,18.100000
2019-02-05T11:00:08.955Z,18.100000
2019-02-05T11:02:39.683Z,18.200000
2019-02-05T11:05:10.364Z,18.200000
2019-02-05T11:07:41.286Z,15.800000
2019-02-05T11:10:11.928Z,15.800000
2019-02-05T11:12:42.558Z,16.800000
2019-02-05T11:15:13.070Z,16.800000
2019-02-05T11:17:43.568Z,15.800000
2019-02-05T11:20:19.125Z,15.800000
2019-02-05T11:22:54.895Z,15.000000
2019-02-05T11:25:25.334Z,15.000000
2019-02-05T11:27:55.773Z,13.400000
2019-02-05T11:30:26.219Z,13.400000
2019-02-05T11:32:56.815Z,14.700000
2019-02-05T11:35:27.344Z,14.700000
2019-02-05T11:37:57.871Z,13.500000
2019-02-05T11:40:28.399Z,13.500000
2019-02-05T11:42:59.039Z,14.200000
2019-02-05T11:45:29.459Z,14.200000
2019-02-05T11:47:59.876Z,14.200000
2019-02-05T11:50:30.495Z,14.200000
2019-02-05T11:53:00.940Z,14.000000
2019-02-05T11:55:31.362Z,14.000000
2019-02-05T11:58:01.858Z,14.100000
2019-02-05T12:00:33.097Z,14.100000
2019-02-05T12:03:03.664Z,12.600000
2019-02-05T12:05:34.192Z,12.600000
2019-02-05T12:08:04.821Z,14.000000
2019-02-05T12:10:35.451Z,14.000000
2019-02-05T12:13:06.080Z,12.800000
2019-02-05T12:15:36.448Z,12.800000
2019-02-05T12:18:06.932Z,12.000000
2019-02-05T12:20:37.357Z,12.000000
2019-02-05T12:23:07.887Z,13.100000
2019-02-05T12:25:38.311Z,13.100000
2019-02-05T12:28:08.735Z,11.900000
2019-02-05T12:30:44.947Z,11.900000
2019-02-05T12:33:16.042Z,13.100000
2019-02-05T12:35:48.515Z,13.100000
2019-02-05T12:38:19.142Z,13.800000
2019-02-05T12:40:49.772Z,13.800000
2019-02-05T12:43:20.311Z,12.200000
2019-02-05T12:45:50.932Z,12.200000
2019-02-05T12:48:21.474Z,11.600000
2019-02-05T12:50:51.883Z,11.600000
2019-02-05T12:53:22.600Z,13.800000
2019-02-05T12:55:53.006Z,13.800000
2019-02-05T12:58:23.485Z,14.100000
2019-02-05T13:00:58.848Z,14.100000
2019-02-05T13:03:32.202Z,13.500000
2019-02-05T13:06:02.527Z,13.500000
2019-02-05T13:08:33.174Z,13.100000
2019-02-05T13:11:03.694Z,13.100000
2019-02-05T13:13:34.198Z,13.100000
2019-02-05T13:16:04.922Z,13.100000
2019-02-05T13:18:35.375Z,14.300000
2019-02-05T13:21:05.799Z,14.300000
2019-02-05T13:23:36.327Z,14.000000
2019-02-05T13:26:07.089Z,14.000000
2019-02-05T13:28:37.797Z,13.700000
2019-02-05T13:31:08.473Z,13.700000
2019-02-05T13:33:39.053Z,11.900000
2019-02-05T13:36:09.683Z,11.900000
2019-02-05T13:38:40.313Z,12.900000
2019-02-05T13:41:10.943Z,12.900000
2019-02-05T13:43:41.675Z,12.200000
2019-02-05T13:46:12.304Z,12.200000
2019-02-05T13:48:43.150Z,12.300000
2019-02-05T13:51:13.666Z,12.300000
2019-02-05T13:53:44.201Z,11.300000
2019-02-05T13:56:15.347Z,10.400000
2019-02-05T13:58:45.972Z,10.400000
2019-02-05T14:01:20.019Z,12.400000
2019-02-05T14:03:50.865Z,12.400000
2019-02-05T14:06:21.465Z,11.000000
2019-02-05T14:08:52.389Z,11.000000
2019-02-05T14:11:22.907Z,13.400000
2019-02-05T14:13:58.342Z,13.400000
2019-02-05T14:16:28.775Z,11.700000
2019-02-05T14:18:59.305Z,11.700000
2019-02-05T14:21:29.830Z,10.800000
2019-02-05T14:24:00.324Z,10.800000
2019-02-05T14:26:30.787Z,11.100000
2019-02-05T14:29:01.214Z,11.100000
2019-02-05T14:31:31.823Z,12.000000
2019-02-05T14:34:02.371Z,12.000000
2019-02-05T14:36:33.205Z,12.400000
2019-02-05T14:39:03.831Z,12.400000
2019-02-05T14:41:34.267Z,9.400000
2019-02-05T14:44:04.784Z,9.400000
2019-02-05T14:46:35.313Z,11.400000
2019-02-05T14:49:05.737Z,11.400000
2019-02-05T14:51:36.172Z,10.100000
2019-02-05T14:54:06.723Z,10.100000
2019-02-05T14:56:37.219Z,13.600000
2019-02-05T14:59:07.730Z,13.600000
2019-02-05T15:01:43.348Z,13.500000
2019-02-05T15:04:14.155Z,13.500000
2019-02-05T15:06:49.546Z,15.000000
2019-02-05T15:09:20.838Z,15.000000
2019-02-05T15:11:51.136Z,17.000000
2019-02-05T15:14:21.564Z,17.000000
2019-02-05T15:16:51.989Z,13.600000
2019-02-05T15:19:22.505Z,13.600000
2019-02-05T15:21:52.819Z,14.000000
2019-02-05T15:24:23.469Z,14.000000
2019-02-05T15:26:54.000Z,13.800000
2019-02-05T15:29:24.637Z,13.800000
2019-02-05T15:31:56.114Z,14.500000
2019-02-05T15:34:26.507Z,14.500000
2019-02-05T15:36:56.930Z,14.500000
2019-02-05T15:39:27.459Z,14.500000
2019-02-05T15:41:58.291Z,14.900000
2019-02-05T15:44:28.823Z,14.900000
2019-02-05T15:46:59.351Z,14.200000
2019-02-05T15:49:29.771Z,14.200000
2019-02-05T15:52:00.305Z,17.100000
2019-02-05T15:54:30.646Z,17.100000
2019-02-05T15:57:01.151Z,15.800000
2019-02-05T15:59:31.577Z,15.800000
2019-02-05T16:02:06.382Z,14.800000
2019-02-05T16:04:37.347Z,14.800000
2019-02-05T16:07:07.768Z,15.000000
2019-02-05T16:09:38.301Z,15.000000
2019-02-05T16:12:08.829Z,14.200000
2019-02-05T16:14:39.399Z,14.200000
2019-02-05T16:17:09.778Z,13.900000
2019-02-05T16:19:40.208Z,13.900000
2019-02-05T16:22:11.152Z,12.800000
2019-02-05T16:24:41.782Z,12.800000
2019-02-05T16:27:12.503Z,14.700000
2019-02-05T16:29:43.036Z,14.700000
2019-02-05T16:32:17.611Z,16.200000
2019-02-05T16:34:48.577Z,16.200000
2019-02-05T16:37:19.222Z,13.300000
2019-02-05T16:39:49.751Z,13.300000
2019-02-05T16:42:20.483Z,12.700000
2019-02-05T16:44:51.118Z,12.700000
2019-02-05T16:47:21.533Z,11.900000
2019-02-05T16:49:51.970Z,11.900000
2019-02-05T16:52:22.491Z,12.400000
2019-02-05T16:54:53.019Z,12.400000
2019-02-05T16:57:23.450Z,14.300000
2019-02-05T16:59:53.972Z,14.300000
2019-02-05T17:02:28.828Z,13.700000
2019-02-05T17:04:59.841Z,13.700000
2019-02-05T17:07:30.369Z,14.100000
2019-02-05T17:10:00.794Z,14.100000
2019-02-05T17:12:31.425Z,15.900000
2019-02-05T17:15:02.260Z,15.900000
2019-02-05T17:17:32.689Z,14.400000
2019-02-05T17:20:03.112Z,14.400000
2019-02-05T17:22:38.503Z,16.900000
2019-02-05T17:25:08.981Z,16.900000
2019-02-05T17:27:39.610Z,14.800000
2019-02-05T17:30:10.148Z,14.800000
2019-02-05T17:32:40.666Z,16.100000
2019-02-05T17:35:11.300Z,16.100000
2019-02-05T17:37:41.686Z,15.500000
2019-02-05T17:40:12.147Z,13.800000
2019-02-05T17:42:42.983Z,13.800000
2019-02-05T17:45:13.407Z,12.000000
2019-02-05T17:47:43.934Z,12.000000
2019-02-05T17:50:14.473Z,13.300000
2019-02-05T17:52:44.890Z,13.300000
2019-02-05T17:55:15.518Z,15.600000
2019-02-05T17:57:46.148Z,15.600000
2019-02-05T18:00:16.684Z,15.300000
2019-02-05T18:02:51.641Z,15.300000
2019-02-05T18:05:22.547Z,14.900000
2019-02-05T18:07:53.082Z,14.900000
2019-02-05T18:10:23.601Z,14.200000
2019-02-05T18:12:54.130Z,14.200000
2019-02-05T18:15:24.712Z,15.500000
2019-02-05T18:17:55.286Z,15.500000
2019-02-05T18:20:25.718Z,13.400000
2019-02-05T18:22:56.550Z,13.400000
2019-02-05T18:25:26.977Z,15.200000
2019-02-05T18:27:57.605Z,15.200000
2019-02-05T18:30:28.236Z,15.700000
2019-02-05T18:33:03.650Z,15.700000
2019-02-05T18:35:36.264Z,14.400000
2019-02-05T18:38:06.677Z,14.400000
2019-02-05T18:40:37.072Z,17.200000
2019-02-05T18:43:07.428Z,17.200000
2019-02-05T18:45:37.953Z,18.000000
2019-02-05T18:48:08.691Z,18.000000
2019-02-05T18:50:39.218Z,19.100000
2019-02-05T18:53:11.879Z,19.100000
2019-02-05T18:55:42.727Z,19.000000
2019-02-05T18:58:18.043Z,19.000000
2019-02-05T19:00:49.009Z,18.700000
2019-02-05T19:03:19.635Z,18.700000
2019-02-05T19:05:50.061Z,18.000000
2019-02-05T19:08:25.486Z,18.000000
2019-02-05T19:10:55.930Z,16.100000
2019-02-05T19:13:26.457Z,16.100000
2019-02-05T19:15:56.862Z,18.400000
2019-02-05T19:18:27.411Z,18.400000
2019-02-05T19:20:57.835Z,18.900000
2019-02-05T19:23:28.262Z,18.900000
2019-02-05T19:25:58.896Z,17.800000
2019-02-05T19:28:29.421Z,17.800000
2019-02-05T19:30:59.947Z,17.200000
2019-02-05T19:33:30.372Z,17.200000
2019-02-05T19:36:00.901Z,16.800000
2019-02-05T19:38:31.442Z,16.800000
2019-02-05T19:41:02.169Z,17.500000
2019-02-05T19:43:32.589Z,17.500000
2019-02-05T19:46:03.463Z,18.700000
2019-02-05T19:48:34.115Z,18.700000
2019-02-05T19:51:04.992Z,17.800000
2019-02-05T19:53:35.623Z,17.800000
2019-02-05T19:56:06.670Z,18.500000
2019-02-05T19:58:37.430Z,18.500000
2019-02-05T20:01:07.833Z,18.800000
2019-02-05T20:03:39.178Z,18.800000
2019-02-05T20:06:09.744Z,18.500000
2019-02-05T20:08:40.250Z,18.500000
2019-02-05T20:11:10.650Z,17.300000
2019-02-05T20:13:41.283Z,17.300000
2019-02-05T20:16:12.123Z,18.400000
2019-02-05T20:18:42.947Z,18.400000
2019-02-05T20:21:13.372Z,19.300000
2019-02-05T20:23:43.906Z,19.300000
2019-02-05T20:26:14.433Z,17.200000
2019-02-05T20:28:49.868Z,17.200000
2019-02-05T20:31:20.363Z,17.300000
2019-02-05T20:33:50.936Z,17.300000
2019-02-05T20:36:21.560Z,18.300000
2019-02-05T20:38:53.136Z,18.300000
2019-02-05T20:41:23.623Z,16.100000
2019-02-05T20:43:54.062Z,16.100000
2019-02-05T20:46:24.589Z,20.300000
2019-02-05T20:48:55.002Z,20.300000
2019-02-05T20:51:25.445Z,21.300000
2019-02-05T20:53:55.969Z,21.300000
2019-02-05T20:56:26.700Z,20.600000
2019-02-05T20:58:57.231Z,20.600000
2019-02-05T21:01:27.656Z,19.600000
2019-02-05T21:04:01.153Z,19.600000
2019-02-05T21:06:32.060Z,18.100000
2019-02-05T21:09:02.518Z,18.100000
2019-02-05T21:11:33.150Z,21.000000
2019-02-05T21:14:03.674Z,21.000000
2019-02-05T21:16:34.207Z,20.200000
2019-02-05T21:19:04.835Z,20.200000
2019-02-05T21:21:35.565Z,20.700000
2019-02-05T21:24:05.866Z,19.800000
2019-02-05T21:26:36.311Z,19.800000
2019-02-05T21:29:06.840Z,19.900000
2019-02-05T21:31:37.266Z,19.900000
2019-02-05T21:34:15.243Z,16.800000
2019-02-05T21:36:46.518Z,16.800000
2019-02-05T21:39:16.939Z,22.300000
2019-02-05T21:41:47.568Z,22.300000
2019-02-05T21:44:18.097Z,18.500000
2019-02-05T21:46:48.419Z,18.500000
2019-02-05T21:49:18.745Z,19.100000
2019-02-05T21:51:49.681Z,19.100000
2019-02-05T21:54:20.324Z,20.700000
2019-02-05T21:56:51.047Z,20.700000
2019-02-05T21:59:21.555Z,18.500000
2019-02-05T22:01:51.920Z,18.500000
2019-02-05T22:04:27.197Z,18.500000
2019-02-05T22:06:58.787Z,18.500000
2019-02-05T22:09:29.325Z,21.800000
2019-02-05T22:11:59.846Z,21.800000
2019-02-05T22:14:30.372Z,21.400000
2019-02-05T22:17:00.693Z,21.400000
2019-02-05T22:19:31.240Z,22.800000
2019-02-05T22:22:01.650Z,22.800000
2019-02-05T22:24:32.072Z,21.400000
2019-02-05T22:27:02.804Z,21.400000
2019-02-05T22:29:33.206Z,22.000000
2019-02-05T22:32:03.655Z,22.000000
2019-02-05T22:34:39.425Z,21.600000
2019-02-05T22:37:10.346Z,21.600000
2019-02-05T22:39:41.280Z,23.000000
2019-02-05T22:42:11.706Z,23.000000
2019-02-05T22:44:42.545Z,23.200000
2019-02-05T22:47:12.939Z,23.200000
2019-02-05T22:49:43.714Z,19.400000
2019-02-05T22:52:14.229Z,19.400000
2019-02-05T22:54:44.755Z,22.100000
2019-02-05T22:57:15.166Z,22.100000
2019-02-05T22:59:45.914Z,22.500000
2019-02-05T23:02:16.440Z,22.500000
2019-02-05T23:04:50.712Z,22.700000
2019-02-05T23:07:21.593Z,22.700000
2019-02-05T23:09:52.228Z,21.800000
2019-02-05T23:12:22.650Z,21.800000
2019-02-05T23:14:53.181Z,20.600000
2019-02-05T23:17:23.603Z,20.600000
2019-02-05T23:19:54.027Z,23.100000
2019-02-05T23:22:24.443Z,23.100000
2019-02-05T23:24:54.763Z,20.500000
2019-02-05T23:27:25.290Z,20.500000
2019-02-05T23:29:55.727Z,19.600000
2019-02-05T23:32:26.072Z,19.600000
2019-02-05T23:35:02.336Z,22.600000
2019-02-05T23:37:33.016Z,22.600000
2019-02-05T23:40:03.774Z,19.700000
2019-02-05T23:42:34.200Z,19.700000
2019-02-05T23:45:04.569Z,20.200000
2019-02-05T23:47:34.956Z,20.200000
2019-02-05T23:50:05.275Z,17.300000
2019-02-05T23:52:35.607Z,17.300000
2019-02-05T23:55:06.258Z,18.100000
2019-02-05T23:57:36.587Z,18.100000
